sensor_id;sensor_type;location;lat;lon;timestamp;temperature;humidity
7842;DHT22;3966;51.052;13.820;2022-12-07T00:01:35;3.20;99.90
7842;DHT22;3966;51.052;13.820;2022-12-07T00:04:00;3.30;99.90
7842;DHT22;3966;51.052;13.820;2022-12-07T00:06:39;3.20;99.90
7842;DHT22;3966;51.052;13.820;2022-12-07T00:09:06;3.20;99.90
7842;DHT22;3966;51.052;13.820;2022-12-07T00:11:32;3.20;99.90
7842;DHT22;3966;51.052;13.820;2022-12-07T00:14:00;3.20;99.90
7842;DHT22;3966;51.052;13.820;2022-12-07T00:16:28;3.20;99.90
7842;DHT22;3966;51.052;13.820;2022-12-07T00:18:55;3.20;99.90
7842;DHT22;3966;51.052;13.820;2022-12-07T00:21:29;3.20;99.90
7842;DHT22;3966;51.052;13.820;2022-12-07T00:23:55;3.20;99.90
7842;DHT22;3966;51.052;13.820;2022-12-07T00:26:27;3.20;99.90
7842;DHT22;3966;51.052;13.820;2022-12-07T00:28:55;3.20;99.90
7842;DHT22;3966;51.052;13.820;2022-12-07T00:31:23;3.20;99.90
7842;DHT22;3966;51.052;13.820;2022-12-07T00:33:50;3.10;99.90
7842;DHT22;3966;51.052;13.820;2022-12-07T00:36:18;3.10;99.90
7842;DHT22;3966;51.052;13.820;2022-12-07T00:38:44;3.20;99.90
7842;DHT22;3966;51.052;13.820;2022-12-07T00:41:21;3.20;99.90
7842;DHT22;3966;51.052;13.820;2022-12-07T00:43:47;3.20;99.90
7842;DHT22;3966;51.052;13.820;2022-12-07T00:46:14;3.20;99.90
7842;DHT22;3966;51.052;13.820;2022-12-07T00:48:41;3.20;99.90
7842;DHT22;3966;51.052;13.820;2022-12-07T00:51:06;3.20;99.90
7842;DHT22;3966;51.052;13.820;2022-12-07T00:53:36;3.20;99.90
7842;DHT22;3966;51.052;13.820;2022-12-07T00:56:11;3.20;99.90
7842;DHT22;3966;51.052;13.820;2022-12-07T00:58:37;3.20;99.90
7842;DHT22;3966;51.052;13.820;2022-12-07T01:01:05;3.20;99.90
7842;DHT22;3966;51.052;13.820;2022-12-07T01:03:31;3.20;99.90
7842;DHT22;3966;51.052;13.820;2022-12-07T01:05:57;3.30;99.90
7842;DHT22;3966;51.052;13.820;2022-12-07T01:08:24;3.20;99.90
7842;DHT22;3966;51.052;13.820;2022-12-07T01:11:01;3.20;99.90
7842;DHT22;3966;51.052;13.820;2022-12-07T01:13:28;3.20;99.90
7842;DHT22;3966;51.052;13.820;2022-12-07T01:15:57;3.20;99.90
7842;DHT22;3966;51.052;13.820;2022-12-07T01:18:22;3.20;99.90
7842;DHT22;3966;51.052;13.820;2022-12-07T01:21:08;3.20;99.90
7842;DHT22;3966;51.052;13.820;2022-12-07T01:23:35;3.30;99.90
7842;DHT22;3966;51.052;13.820;2022-12-07T01:26:04;3.20;99.90
7842;DHT22;3966;51.052;13.820;2022-12-07T01:28:30;3.20;99.90
7842;DHT22;3966;51.052;13.820;2022-12-07T01:31:03;3.30;99.90
7842;DHT22;3966;51.052;13.820;2022-12-07T01:33:31;3.30;99.90
7842;DHT22;3966;51.052;13.820;2022-12-07T01:36:34;3.30;99.90
7842;DHT22;3966;51.052;13.820;2022-12-07T01:39:02;3.40;99.90
7842;DHT22;3966;51.052;13.820;2022-12-07T01:41:30;3.30;99.90
7842;DHT22;3966;51.052;13.820;2022-12-07T01:44:20;3.30;99.90
7842;DHT22;3966;51.052;13.820;2022-12-07T01:46:57;3.30;99.90
7842;DHT22;3966;51.052;13.820;2022-12-07T01:52:06;3.40;99.90
7842;DHT22;3966;51.052;13.820;2022-12-07T01:54:35;3.40;99.90
7842;DHT22;3966;51.052;13.820;2022-12-07T01:57:01;3.30;99.90
7842;DHT22;3966;51.052;13.820;2022-12-07T01:59:28;3.30;99.90
7842;DHT22;3966;51.052;13.820;2022-12-07T02:01:55;3.30;99.90
7842;DHT22;3966;51.052;13.820;2022-12-07T02:04:22;3.30;99.90
7842;DHT22;3966;51.052;13.820;2022-12-07T02:06:48;3.30;99.90
7842;DHT22;3966;51.052;13.820;2022-12-07T02:09:14;3.30;99.90
7842;DHT22;3966;51.052;13.820;2022-12-07T02:11:41;3.30;99.90
7842;DHT22;3966;51.052;13.820;2022-12-07T02:14:06;3.30;99.90
7842;DHT22;3966;51.052;13.820;2022-12-07T02:19:33;3.20;99.90
7842;DHT22;3966;51.052;13.820;2022-12-07T02:24:54;3.20;99.90
7842;DHT22;3966;51.052;13.820;2022-12-07T02:27:40;3.20;99.90
7842;DHT22;3966;51.052;13.820;2022-12-07T02:30:16;3.10;99.90
7842;DHT22;3966;51.052;13.820;2022-12-07T02:35:26;3.10;99.90
7842;DHT22;3966;51.052;13.820;2022-12-07T02:40:31;3.00;99.90
7842;DHT22;3966;51.052;13.820;2022-12-07T02:45:40;3.00;99.90
7842;DHT22;3966;51.052;13.820;2022-12-07T02:48:08;2.90;99.90
7842;DHT22;3966;51.052;13.820;2022-12-07T02:50:35;2.90;99.90
7842;DHT22;3966;51.052;13.820;2022-12-07T02:53:01;2.80;99.90
7842;DHT22;3966;51.052;13.820;2022-12-07T02:55:35;2.90;99.90
7842;DHT22;3966;51.052;13.820;2022-12-07T02:58:18;2.80;99.90
7842;DHT22;3966;51.052;13.820;2022-12-07T03:01:06;2.80;99.90
7842;DHT22;3966;51.052;13.820;2022-12-07T03:03:34;2.80;99.90
7842;DHT22;3966;51.052;13.820;2022-12-07T03:11:29;2.90;99.90
7842;DHT22;3966;51.052;13.820;2022-12-07T03:14:06;2.90;99.90
7842;DHT22;3966;51.052;13.820;2022-12-07T03:16:55;2.90;99.90
7842;DHT22;3966;51.052;13.820;2022-12-07T03:19:25;2.90;99.90
7842;DHT22;3966;51.052;13.820;2022-12-07T03:21:58;2.90;99.90
7842;DHT22;3966;51.052;13.820;2022-12-07T03:24:27;2.90;99.90
7842;DHT22;3966;51.052;13.820;2022-12-07T03:27:02;2.90;99.90
7842;DHT22;3966;51.052;13.820;2022-12-07T03:29:30;2.90;99.90
7842;DHT22;3966;51.052;13.820;2022-12-07T03:32:15;2.90;99.90
7842;DHT22;3966;51.052;13.820;2022-12-07T03:34:56;2.90;99.90
7842;DHT22;3966;51.052;13.820;2022-12-07T03:37:32;2.80;99.90
7842;DHT22;3966;51.052;13.820;2022-12-07T03:42:32;2.80;99.90
7842;DHT22;3966;51.052;13.820;2022-12-07T03:44:59;2.80;99.90
7842;DHT22;3966;51.052;13.820;2022-12-07T03:47:52;2.80;99.90
7842;DHT22;3966;51.052;13.820;2022-12-07T03:50:33;2.80;99.90
7842;DHT22;3966;51.052;13.820;2022-12-07T03:53:22;2.70;99.90
7842;DHT22;3966;51.052;13.820;2022-12-07T03:55:50;2.70;99.90
7842;DHT22;3966;51.052;13.820;2022-12-07T03:58:20;2.70;99.90
7842;DHT22;3966;51.052;13.820;2022-12-07T04:00:48;2.80;99.90
7842;DHT22;3966;51.052;13.820;2022-12-07T04:03:14;2.80;99.90
7842;DHT22;3966;51.052;13.820;2022-12-07T04:05:40;2.70;99.90
7842;DHT22;3966;51.052;13.820;2022-12-07T04:08:06;2.80;99.90
7842;DHT22;3966;51.052;13.820;2022-12-07T04:10:32;2.90;99.90
7842;DHT22;3966;51.052;13.820;2022-12-07T04:12:58;2.90;99.90
7842;DHT22;3966;51.052;13.820;2022-12-07T04:15:23;2.90;99.90
7842;DHT22;3966;51.052;13.820;2022-12-07T04:17:49;2.90;99.90
7842;DHT22;3966;51.052;13.820;2022-12-07T04:20:15;2.90;99.90
7842;DHT22;3966;51.052;13.820;2022-12-07T04:22:40;2.90;99.90
7842;DHT22;3966;51.052;13.820;2022-12-07T04:25:06;2.90;99.90
7842;DHT22;3966;51.052;13.820;2022-12-07T04:27:32;2.90;99.90
7842;DHT22;3966;51.052;13.820;2022-12-07T04:29:57;3.00;99.90
7842;DHT22;3966;51.052;13.820;2022-12-07T04:32:23;3.00;99.90
7842;DHT22;3966;51.052;13.820;2022-12-07T04:34:49;3.00;99.90
7842;DHT22;3966;51.052;13.820;2022-12-07T04:37:15;3.00;99.90
7842;DHT22;3966;51.052;13.820;2022-12-07T04:39:41;2.90;99.90
7842;DHT22;3966;51.052;13.820;2022-12-07T04:42:06;2.90;99.90
7842;DHT22;3966;51.052;13.820;2022-12-07T04:44:32;2.90;99.90
7842;DHT22;3966;51.052;13.820;2022-12-07T04:46:58;2.90;99.90
7842;DHT22;3966;51.052;13.820;2022-12-07T04:49:24;2.90;99.90
7842;DHT22;3966;51.052;13.820;2022-12-07T04:51:51;3.00;99.90
7842;DHT22;3966;51.052;13.820;2022-12-07T04:54:17;2.90;99.90
7842;DHT22;3966;51.052;13.820;2022-12-07T04:56:43;2.90;99.90
7842;DHT22;3966;51.052;13.820;2022-12-07T04:59:13;2.90;99.90
7842;DHT22;3966;51.052;13.820;2022-12-07T05:01:39;2.90;99.90
7842;DHT22;3966;51.052;13.820;2022-12-07T05:04:05;2.80;99.90
7842;DHT22;3966;51.052;13.820;2022-12-07T05:06:30;2.70;99.90
7842;DHT22;3966;51.052;13.820;2022-12-07T05:08:56;2.70;99.90
7842;DHT22;3966;51.052;13.820;2022-12-07T05:11:22;2.70;99.90
7842;DHT22;3966;51.052;13.820;2022-12-07T05:16:33;2.60;99.90
7842;DHT22;3966;51.052;13.820;2022-12-07T05:18:59;2.60;99.90
7842;DHT22;3966;51.052;13.820;2022-12-07T05:21:25;2.60;99.90
7842;DHT22;3966;51.052;13.820;2022-12-07T05:23:51;2.60;99.90
7842;DHT22;3966;51.052;13.820;2022-12-07T05:26:17;2.60;99.90
7842;DHT22;3966;51.052;13.820;2022-12-07T05:28:43;2.60;99.90
7842;DHT22;3966;51.052;13.820;2022-12-07T05:31:08;2.70;99.90
7842;DHT22;3966;51.052;13.820;2022-12-07T05:33:34;2.60;99.90
7842;DHT22;3966;51.052;13.820;2022-12-07T05:35:59;2.60;99.90
7842;DHT22;3966;51.052;13.820;2022-12-07T05:38:31;2.60;99.90
7842;DHT22;3966;51.052;13.820;2022-12-07T05:41:03;2.70;99.90
7842;DHT22;3966;51.052;13.820;2022-12-07T05:43:29;2.70;99.90
7842;DHT22;3966;51.052;13.820;2022-12-07T05:45:55;2.80;99.90
7842;DHT22;3966;51.052;13.820;2022-12-07T05:48:20;2.80;99.90
7842;DHT22;3966;51.052;13.820;2022-12-07T05:50:50;2.80;99.90
7842;DHT22;3966;51.052;13.820;2022-12-07T05:53:16;2.90;99.90
7842;DHT22;3966;51.052;13.820;2022-12-07T05:55:45;2.90;99.90
7842;DHT22;3966;51.052;13.820;2022-12-07T05:58:11;2.90;99.90
7842;DHT22;3966;51.052;13.820;2022-12-07T06:00:55;2.90;99.90
7842;DHT22;3966;51.052;13.820;2022-12-07T06:03:21;3.00;99.90
7842;DHT22;3966;51.052;13.820;2022-12-07T06:05:47;3.00;99.90
7842;DHT22;3966;51.052;13.820;2022-12-07T06:08:13;3.00;99.90
7842;DHT22;3966;51.052;13.820;2022-12-07T06:10:40;2.90;99.90
7842;DHT22;3966;51.052;13.820;2022-12-07T06:13:07;3.00;99.90
7842;DHT22;3966;51.052;13.820;2022-12-07T06:15:35;3.00;99.90
7842;DHT22;3966;51.052;13.820;2022-12-07T06:18:01;3.00;99.90
7842;DHT22;3966;51.052;13.820;2022-12-07T06:20:26;3.10;99.90
7842;DHT22;3966;51.052;13.820;2022-12-07T06:22:52;3.10;99.90
7842;DHT22;3966;51.052;13.820;2022-12-07T06:25:17;3.10;99.90
7842;DHT22;3966;51.052;13.820;2022-12-07T06:27:43;3.10;99.90
7842;DHT22;3966;51.052;13.820;2022-12-07T06:30:09;3.10;99.90
7842;DHT22;3966;51.052;13.820;2022-12-07T06:32:36;3.10;99.90
7842;DHT22;3966;51.052;13.820;2022-12-07T06:35:02;3.10;99.90
7842;DHT22;3966;51.052;13.820;2022-12-07T06:37:28;3.10;99.90
7842;DHT22;3966;51.052;13.820;2022-12-07T06:39:53;3.20;99.90
7842;DHT22;3966;51.052;13.820;2022-12-07T06:42:19;3.20;99.90
7842;DHT22;3966;51.052;13.820;2022-12-07T06:44:45;3.20;99.90
7842;DHT22;3966;51.052;13.820;2022-12-07T06:47:10;3.20;99.90
7842;DHT22;3966;51.052;13.820;2022-12-07T06:49:36;3.10;99.90
7842;DHT22;3966;51.052;13.820;2022-12-07T06:52:02;3.10;99.90
7842;DHT22;3966;51.052;13.820;2022-12-07T06:54:30;3.20;99.90
7842;DHT22;3966;51.052;13.820;2022-12-07T06:56:55;3.20;99.90
7842;DHT22;3966;51.052;13.820;2022-12-07T06:59:21;3.30;99.90
7842;DHT22;3966;51.052;13.820;2022-12-07T07:01:47;3.40;99.90
7842;DHT22;3966;51.052;13.820;2022-12-07T07:04:12;3.40;99.90
7842;DHT22;3966;51.052;13.820;2022-12-07T07:06:38;3.40;99.90
7842;DHT22;3966;51.052;13.820;2022-12-07T07:09:03;3.40;99.90
7842;DHT22;3966;51.052;13.820;2022-12-07T07:11:29;3.40;99.90
7842;DHT22;3966;51.052;13.820;2022-12-07T07:13:55;3.40;99.90
7842;DHT22;3966;51.052;13.820;2022-12-07T07:16:23;3.40;99.90
7842;DHT22;3966;51.052;13.820;2022-12-07T07:18:49;3.30;99.90
7842;DHT22;3966;51.052;13.820;2022-12-07T07:21:14;3.40;99.90
7842;DHT22;3966;51.052;13.820;2022-12-07T07:23:40;3.30;99.90
7842;DHT22;3966;51.052;13.820;2022-12-07T07:26:06;3.30;99.90
7842;DHT22;3966;51.052;13.820;2022-12-07T07:28:31;3.30;99.90
7842;DHT22;3966;51.052;13.820;2022-12-07T07:30:57;3.20;99.90
7842;DHT22;3966;51.052;13.820;2022-12-07T07:33:23;3.10;99.90
7842;DHT22;3966;51.052;13.820;2022-12-07T07:35:48;3.10;99.90
7842;DHT22;3966;51.052;13.820;2022-12-07T07:38:14;3.10;99.90
7842;DHT22;3966;51.052;13.820;2022-12-07T07:40:39;3.00;99.90
7842;DHT22;3966;51.052;13.820;2022-12-07T07:43:05;3.00;99.90
7842;DHT22;3966;51.052;13.820;2022-12-07T07:45:31;3.00;99.90
7842;DHT22;3966;51.052;13.820;2022-12-07T07:47:57;3.00;99.90
7842;DHT22;3966;51.052;13.820;2022-12-07T07:50:22;3.00;99.90
7842;DHT22;3966;51.052;13.820;2022-12-07T07:52:48;3.10;99.90
7842;DHT22;3966;51.052;13.820;2022-12-07T07:55:14;3.10;99.90
7842;DHT22;3966;51.052;13.820;2022-12-07T07:57:41;3.10;99.90
7842;DHT22;3966;51.052;13.820;2022-12-07T08:00:12;3.10;99.90
7842;DHT22;3966;51.052;13.820;2022-12-07T08:02:38;3.10;99.90
7842;DHT22;3966;51.052;13.820;2022-12-07T08:05:05;3.10;99.90
7842;DHT22;3966;51.052;13.820;2022-12-07T08:07:31;3.10;99.90
7842;DHT22;3966;51.052;13.820;2022-12-07T08:09:56;3.10;99.90
7842;DHT22;3966;51.052;13.820;2022-12-07T08:12:22;3.20;99.90
7842;DHT22;3966;51.052;13.820;2022-12-07T08:14:48;3.20;99.90
7842;DHT22;3966;51.052;13.820;2022-12-07T08:17:13;3.20;99.90
7842;DHT22;3966;51.052;13.820;2022-12-07T08:19:39;3.20;99.90
7842;DHT22;3966;51.052;13.820;2022-12-07T08:22:05;3.30;99.90
7842;DHT22;3966;51.052;13.820;2022-12-07T08:24:33;3.40;99.90
7842;DHT22;3966;51.052;13.820;2022-12-07T08:26:59;3.50;99.90
7842;DHT22;3966;51.052;13.820;2022-12-07T08:29:24;3.50;99.90
7842;DHT22;3966;51.052;13.820;2022-12-07T08:31:50;3.50;99.90
7842;DHT22;3966;51.052;13.820;2022-12-07T08:34:15;3.50;99.90
7842;DHT22;3966;51.052;13.820;2022-12-07T08:36:41;3.50;99.90
7842;DHT22;3966;51.052;13.820;2022-12-07T08:39:07;3.60;99.90
7842;DHT22;3966;51.052;13.820;2022-12-07T08:41:32;3.60;99.90
7842;DHT22;3966;51.052;13.820;2022-12-07T08:43:58;3.60;99.90
7842;DHT22;3966;51.052;13.820;2022-12-07T08:46:37;3.60;99.90
7842;DHT22;3966;51.052;13.820;2022-12-07T08:51:35;3.70;99.90
7842;DHT22;3966;51.052;13.820;2022-12-07T08:54:04;3.80;99.90
7842;DHT22;3966;51.052;13.820;2022-12-07T08:56:30;3.80;99.90
7842;DHT22;3966;51.052;13.820;2022-12-07T08:58:57;3.80;99.90
7842;DHT22;3966;51.052;13.820;2022-12-07T09:01:23;3.90;99.90
7842;DHT22;3966;51.052;13.820;2022-12-07T09:03:49;3.90;99.90
7842;DHT22;3966;51.052;13.820;2022-12-07T09:06:14;3.90;99.90
7842;DHT22;3966;51.052;13.820;2022-12-07T09:08:43;3.90;99.90
7842;DHT22;3966;51.052;13.820;2022-12-07T09:11:11;3.90;99.90
7842;DHT22;3966;51.052;13.820;2022-12-07T09:13:36;4.00;99.90
7842;DHT22;3966;51.052;13.820;2022-12-07T09:16:02;4.10;99.90
7842;DHT22;3966;51.052;13.820;2022-12-07T09:18:28;4.10;99.90
7842;DHT22;3966;51.052;13.820;2022-12-07T09:20:53;4.10;99.90
7842;DHT22;3966;51.052;13.820;2022-12-07T09:23:19;4.20;99.90
7842;DHT22;3966;51.052;13.820;2022-12-07T09:25:45;4.20;99.90
7842;DHT22;3966;51.052;13.820;2022-12-07T09:28:10;4.30;99.90
7842;DHT22;3966;51.052;13.820;2022-12-07T09:30:36;4.30;99.90
7842;DHT22;3966;51.052;13.820;2022-12-07T09:33:02;4.30;99.90
7842;DHT22;3966;51.052;13.820;2022-12-07T09:35:27;4.40;99.90
7842;DHT22;3966;51.052;13.820;2022-12-07T09:37:53;4.40;99.90
7842;DHT22;3966;51.052;13.820;2022-12-07T09:40:21;4.40;99.90
7842;DHT22;3966;51.052;13.820;2022-12-07T09:42:51;4.50;99.90
7842;DHT22;3966;51.052;13.820;2022-12-07T09:45:24;4.60;99.90
7842;DHT22;3966;51.052;13.820;2022-12-07T09:47:50;4.70;99.90
7842;DHT22;3966;51.052;13.820;2022-12-07T09:50:20;4.80;99.90
7842;DHT22;3966;51.052;13.820;2022-12-07T09:52:47;4.80;99.90
7842;DHT22;3966;51.052;13.820;2022-12-07T09:55:35;4.80;99.90
7842;DHT22;3966;51.052;13.820;2022-12-07T09:58:00;4.70;99.90
7842;DHT22;3966;51.052;13.820;2022-12-07T10:00:25;4.80;99.90
7842;DHT22;3966;51.052;13.820;2022-12-07T10:02:56;4.80;99.90
7842;DHT22;3966;51.052;13.820;2022-12-07T10:05:27;4.90;99.90
7842;DHT22;3966;51.052;13.820;2022-12-07T10:07:54;4.80;99.90
7842;DHT22;3966;51.052;13.820;2022-12-07T10:10:33;4.90;99.90
7842;DHT22;3966;51.052;13.820;2022-12-07T10:13:08;4.90;99.90
7842;DHT22;3966;51.052;13.820;2022-12-07T10:15:57;5.10;99.90
7842;DHT22;3966;51.052;13.820;2022-12-07T10:23:42;5.30;99.90
7842;DHT22;3966;51.052;13.820;2022-12-07T10:26:38;5.60;99.90
7842;DHT22;3966;51.052;13.820;2022-12-07T10:29:18;5.30;99.90
7842;DHT22;3966;51.052;13.820;2022-12-07T10:32:01;5.40;99.90
7842;DHT22;3966;51.052;13.820;2022-12-07T10:34:36;5.50;99.90
7842;DHT22;3966;51.052;13.820;2022-12-07T10:39:50;5.70;99.90
7842;DHT22;3966;51.052;13.820;2022-12-07T10:44:44;5.30;99.90
7842;DHT22;3966;51.052;13.820;2022-12-07T10:47:55;5.30;99.90
7842;DHT22;3966;51.052;13.820;2022-12-07T10:50:58;5.10;99.90
7842;DHT22;3966;51.052;13.820;2022-12-07T10:53:50;5.10;99.90
7842;DHT22;3966;51.052;13.820;2022-12-07T10:56:28;5.10;99.90
7842;DHT22;3966;51.052;13.820;2022-12-07T11:01:47;5.10;99.90
7842;DHT22;3966;51.052;13.820;2022-12-07T11:17:13;5.10;99.90
7842;DHT22;3966;51.052;13.820;2022-12-07T11:20:12;5.10;99.90
7842;DHT22;3966;51.052;13.820;2022-12-07T11:30:47;5.20;99.90
7842;DHT22;3966;51.052;13.820;2022-12-07T11:33:27;5.20;99.90
7842;DHT22;3966;51.052;13.820;2022-12-07T11:39:00;5.20;99.90
7842;DHT22;3966;51.052;13.820;2022-12-07T11:41:35;5.20;99.90
7842;DHT22;3966;51.052;13.820;2022-12-07T11:44:33;5.20;99.90
7842;DHT22;3966;51.052;13.820;2022-12-07T11:47:13;5.10;99.90
7842;DHT22;3966;51.052;13.820;2022-12-07T11:52:49;4.60;99.90
7842;DHT22;3966;51.052;13.820;2022-12-07T11:55:26;4.40;99.90
7842;DHT22;3966;51.052;13.820;2022-12-07T11:58:15;4.30;99.90
7842;DHT22;3966;51.052;13.820;2022-12-07T12:00:45;4.30;99.90
7842;DHT22;3966;51.052;13.820;2022-12-07T12:03:23;4.40;99.90
7842;DHT22;3966;51.052;13.820;2022-12-07T12:05:56;4.30;99.90
7842;DHT22;3966;51.052;13.820;2022-12-07T12:08:28;4.40;99.90
7842;DHT22;3966;51.052;13.820;2022-12-07T12:14:05;4.30;99.90
7842;DHT22;3966;51.052;13.820;2022-12-07T12:22:26;4.40;99.90
7842;DHT22;3966;51.052;13.820;2022-12-07T12:24:55;4.50;99.90
7842;DHT22;3966;51.052;13.820;2022-12-07T12:27:26;4.50;99.90
7842;DHT22;3966;51.052;13.820;2022-12-07T12:29:59;4.40;99.90
7842;DHT22;3966;51.052;13.820;2022-12-07T12:32:41;4.40;99.90
7842;DHT22;3966;51.052;13.820;2022-12-07T12:35:31;4.40;99.90
7842;DHT22;3966;51.052;13.820;2022-12-07T12:40:48;4.40;99.90
7842;DHT22;3966;51.052;13.820;2022-12-07T12:43:43;4.50;99.90
7842;DHT22;3966;51.052;13.820;2022-12-07T13:02:39;4.60;99.90
7842;DHT22;3966;51.052;13.820;2022-12-07T13:15:34;4.10;99.90
7842;DHT22;3966;51.052;13.820;2022-12-07T13:18:03;3.90;99.90
7842;DHT22;3966;51.052;13.820;2022-12-07T13:20:49;3.80;99.90
7842;DHT22;3966;51.052;13.820;2022-12-07T13:26:14;3.50;99.90
7842;DHT22;3966;51.052;13.820;2022-12-07T13:28:43;3.40;99.90
7842;DHT22;3966;51.052;13.820;2022-12-07T13:33:35;3.30;99.90
7842;DHT22;3966;51.052;13.820;2022-12-07T13:36:00;3.20;99.90
7842;DHT22;3966;51.052;13.820;2022-12-07T13:38:33;3.20;99.90
7842;DHT22;3966;51.052;13.820;2022-12-07T13:41:15;3.20;99.90
7842;DHT22;3966;51.052;13.820;2022-12-07T13:43:50;3.20;99.90
7842;DHT22;3966;51.052;13.820;2022-12-07T13:46:17;3.10;99.90
7842;DHT22;3966;51.052;13.820;2022-12-07T13:48:47;3.10;99.90
7842;DHT22;3966;51.052;13.820;2022-12-07T13:51:20;3.10;99.90
7842;DHT22;3966;51.052;13.820;2022-12-07T13:54:33;3.20;99.90
7842;DHT22;3966;51.052;13.820;2022-12-07T13:56:40;3.30;99.90
7842;DHT22;3966;51.052;13.820;2022-12-07T13:59:22;3.30;99.90
7842;DHT22;3966;51.052;13.820;2022-12-07T14:01:49;3.30;99.90
7842;DHT22;3966;51.052;13.820;2022-12-07T14:06:51;3.40;99.90
7842;DHT22;3966;51.052;13.820;2022-12-07T14:09:25;3.40;99.90
7842;DHT22;3966;51.052;13.820;2022-12-07T14:11:53;3.50;99.90
7842;DHT22;3966;51.052;13.820;2022-12-07T14:14:30;3.60;99.90
7842;DHT22;3966;51.052;13.820;2022-12-07T14:17:00;3.60;99.90
7842;DHT22;3966;51.052;13.820;2022-12-07T14:22:35;3.70;99.90
7842;DHT22;3966;51.052;13.820;2022-12-07T14:25:17;3.70;99.90
7842;DHT22;3966;51.052;13.820;2022-12-07T14:27:56;3.80;99.90
7842;DHT22;3966;51.052;13.820;2022-12-07T14:30:25;3.80;99.90
7842;DHT22;3966;51.052;13.820;2022-12-07T14:32:56;3.90;99.90
7842;DHT22;3966;51.052;13.820;2022-12-07T14:35:22;3.90;99.90
7842;DHT22;3966;51.052;13.820;2022-12-07T14:37:49;4.00;99.90
7842;DHT22;3966;51.052;13.820;2022-12-07T14:40:19;4.00;99.90
7842;DHT22;3966;51.052;13.820;2022-12-07T14:42:46;4.00;99.90
7842;DHT22;3966;51.052;13.820;2022-12-07T14:45:18;4.00;99.90
7842;DHT22;3966;51.052;13.820;2022-12-07T14:47:45;4.00;99.90
7842;DHT22;3966;51.052;13.820;2022-12-07T14:50:16;4.10;99.90
7842;DHT22;3966;51.052;13.820;2022-12-07T14:52:55;4.00;99.90
7842;DHT22;3966;51.052;13.820;2022-12-07T14:55:31;4.00;99.90
7842;DHT22;3966;51.052;13.820;2022-12-07T14:57:57;4.00;99.90
7842;DHT22;3966;51.052;13.820;2022-12-07T15:00:26;4.00;99.90
7842;DHT22;3966;51.052;13.820;2022-12-07T15:02:52;4.00;99.90
7842;DHT22;3966;51.052;13.820;2022-12-07T15:05:18;4.00;99.90
7842;DHT22;3966;51.052;13.820;2022-12-07T15:07:45;4.00;99.90
7842;DHT22;3966;51.052;13.820;2022-12-07T15:10:20;4.00;99.90
7842;DHT22;3966;51.052;13.820;2022-12-07T15:12:46;4.00;99.90
7842;DHT22;3966;51.052;13.820;2022-12-07T15:15:12;4.00;99.90
7842;DHT22;3966;51.052;13.820;2022-12-07T15:17:38;4.00;99.90
7842;DHT22;3966;51.052;13.820;2022-12-07T15:20:04;4.00;99.90
7842;DHT22;3966;51.052;13.820;2022-12-07T15:22:30;4.00;99.90
7842;DHT22;3966;51.052;13.820;2022-12-07T15:24:57;4.00;99.90
7842;DHT22;3966;51.052;13.820;2022-12-07T15:27:23;4.00;99.90
7842;DHT22;3966;51.052;13.820;2022-12-07T15:29:50;4.00;99.90
7842;DHT22;3966;51.052;13.820;2022-12-07T15:32:15;4.00;99.90
7842;DHT22;3966;51.052;13.820;2022-12-07T15:34:41;4.00;99.90
7842;DHT22;3966;51.052;13.820;2022-12-07T15:37:07;4.10;99.90
7842;DHT22;3966;51.052;13.820;2022-12-07T15:39:33;4.10;99.90
7842;DHT22;3966;51.052;13.820;2022-12-07T15:41:59;4.10;99.90
7842;DHT22;3966;51.052;13.820;2022-12-07T15:44:25;4.10;99.90
7842;DHT22;3966;51.052;13.820;2022-12-07T15:47:09;4.20;99.90
7842;DHT22;3966;51.052;13.820;2022-12-07T15:49:35;4.30;99.90
7842;DHT22;3966;51.052;13.820;2022-12-07T15:52:00;4.30;99.90
7842;DHT22;3966;51.052;13.820;2022-12-07T15:54:28;4.30;99.90
7842;DHT22;3966;51.052;13.820;2022-12-07T15:56:54;4.20;99.90
7842;DHT22;3966;51.052;13.820;2022-12-07T15:59:21;4.30;99.90
7842;DHT22;3966;51.052;13.820;2022-12-07T16:01:46;4.20;99.90
7842;DHT22;3966;51.052;13.820;2022-12-07T16:04:12;4.20;99.90
7842;DHT22;3966;51.052;13.820;2022-12-07T16:06:38;4.20;99.90
7842;DHT22;3966;51.052;13.820;2022-12-07T16:09:04;4.10;99.90
7842;DHT22;3966;51.052;13.820;2022-12-07T16:11:30;4.10;99.90
7842;DHT22;3966;51.052;13.820;2022-12-07T16:13:56;4.10;99.90
7842;DHT22;3966;51.052;13.820;2022-12-07T16:16:22;4.00;99.90
7842;DHT22;3966;51.052;13.820;2022-12-07T16:18:48;4.00;99.90
7842;DHT22;3966;51.052;13.820;2022-12-07T16:21:15;4.00;99.90
7842;DHT22;3966;51.052;13.820;2022-12-07T16:23:41;4.00;99.90
7842;DHT22;3966;51.052;13.820;2022-12-07T16:26:16;4.00;99.90
7842;DHT22;3966;51.052;13.820;2022-12-07T16:28:43;4.00;99.90
7842;DHT22;3966;51.052;13.820;2022-12-07T16:31:11;4.00;99.90
7842;DHT22;3966;51.052;13.820;2022-12-07T16:33:39;4.00;99.90
7842;DHT22;3966;51.052;13.820;2022-12-07T16:36:06;4.00;99.90
7842;DHT22;3966;51.052;13.820;2022-12-07T16:38:32;4.00;99.90
7842;DHT22;3966;51.052;13.820;2022-12-07T16:40:58;4.00;99.90
7842;DHT22;3966;51.052;13.820;2022-12-07T16:43:24;4.00;99.90
7842;DHT22;3966;51.052;13.820;2022-12-07T16:45:50;4.00;99.90
7842;DHT22;3966;51.052;13.820;2022-12-07T16:48:16;4.00;99.90
7842;DHT22;3966;51.052;13.820;2022-12-07T16:50:42;4.00;99.90
7842;DHT22;3966;51.052;13.820;2022-12-07T16:53:10;4.00;99.90
7842;DHT22;3966;51.052;13.820;2022-12-07T16:55:43;4.10;99.90
7842;DHT22;3966;51.052;13.820;2022-12-07T16:58:11;4.10;99.90
7842;DHT22;3966;51.052;13.820;2022-12-07T17:00:38;4.10;99.90
7842;DHT22;3966;51.052;13.820;2022-12-07T17:03:04;4.00;99.90
7842;DHT22;3966;51.052;13.820;2022-12-07T17:05:30;3.90;99.90
7842;DHT22;3966;51.052;13.820;2022-12-07T17:07:56;4.00;99.90
7842;DHT22;3966;51.052;13.820;2022-12-07T17:10:22;4.00;99.90
7842;DHT22;3966;51.052;13.820;2022-12-07T17:12:49;4.00;99.90
7842;DHT22;3966;51.052;13.820;2022-12-07T17:15:15;4.00;99.90
7842;DHT22;3966;51.052;13.820;2022-12-07T17:17:56;4.00;99.90
7842;DHT22;3966;51.052;13.820;2022-12-07T17:20:24;4.00;99.90
7842;DHT22;3966;51.052;13.820;2022-12-07T17:22:50;4.00;99.90
7842;DHT22;3966;51.052;13.820;2022-12-07T17:25:17;4.00;99.90
7842;DHT22;3966;51.052;13.820;2022-12-07T17:27:43;4.00;99.90
7842;DHT22;3966;51.052;13.820;2022-12-07T17:30:10;4.00;99.90
7842;DHT22;3966;51.052;13.820;2022-12-07T17:32:36;4.00;99.90
7842;DHT22;3966;51.052;13.820;2022-12-07T17:35:03;4.10;99.90
7842;DHT22;3966;51.052;13.820;2022-12-07T17:37:30;4.10;99.90
7842;DHT22;3966;51.052;13.820;2022-12-07T17:39:56;4.10;99.90
7842;DHT22;3966;51.052;13.820;2022-12-07T17:42:23;4.10;99.90
7842;DHT22;3966;51.052;13.820;2022-12-07T17:45:08;4.20;99.90
7842;DHT22;3966;51.052;13.820;2022-12-07T17:47:37;4.20;99.90
7842;DHT22;3966;51.052;13.820;2022-12-07T17:50:05;4.10;99.90
7842;DHT22;3966;51.052;13.820;2022-12-07T17:52:31;4.20;99.90
7842;DHT22;3966;51.052;13.820;2022-12-07T17:55:15;4.10;99.90
7842;DHT22;3966;51.052;13.820;2022-12-07T17:57:41;4.10;99.90
7842;DHT22;3966;51.052;13.820;2022-12-07T18:00:07;4.20;99.90
7842;DHT22;3966;51.052;13.820;2022-12-07T18:02:34;4.20;99.90
7842;DHT22;3966;51.052;13.820;2022-12-07T18:04:59;4.20;99.90
7842;DHT22;3966;51.052;13.820;2022-12-07T18:07:25;4.30;99.90
7842;DHT22;3966;51.052;13.820;2022-12-07T18:09:51;4.30;99.90
7842;DHT22;3966;51.052;13.820;2022-12-07T18:12:16;4.30;99.90
7842;DHT22;3966;51.052;13.820;2022-12-07T18:14:42;4.30;99.90
7842;DHT22;3966;51.052;13.820;2022-12-07T18:17:08;4.30;99.90